createdAt,value
2017-09-24T00:00:40.044Z,19.30
2017-09-24T00:03:07.595Z,19.20
2017-09-24T00:05:35.125Z,19.20
2017-09-24T00:08:02.667Z,19.10
2017-09-24T00:10:30.250Z,19.20
2017-09-24T00:12:57.791Z,19.00
2017-09-24T00:15:25.333Z,19.10
2017-09-24T00:17:53.646Z,19.10
2017-09-24T00:20:21.651Z,19.10
2017-09-24T00:22:49.186Z,19.10
2017-09-24T00:25:16.713Z,19.20
2017-09-24T00:27:44.267Z,19.10
2017-09-24T00:30:12.610Z,19.00
2017-09-24T00:32:40.152Z,18.90
2017-09-24T00:35:07.689Z,18.90
2017-09-24T00:37:35.196Z,19.00
2017-09-24T00:40:03.517Z,19.10
2017-09-24T00:42:31.039Z,19.10
2017-09-24T00:44:58.597Z,19.10
2017-09-24T00:47:26.877Z,19.20
2017-09-24T00:49:55.214Z,19.10
2017-09-24T00:52:22.726Z,19.10
2017-09-24T00:54:51.032Z,19.10
2017-09-24T00:57:18.561Z,19.10
2017-09-24T00:59:46.893Z,19.10
2017-09-24T01:02:14.403Z,19.10
2017-09-24T01:04:42.704Z,18.90
2017-09-24T01:07:10.234Z,18.90
2017-09-24T01:09:38.557Z,18.80
2017-09-24T01:12:06.088Z,18.80
2017-09-24T01:14:34.370Z,18.90
2017-09-24T01:17:02.641Z,18.90
2017-09-24T01:19:30.948Z,18.90
2017-09-24T01:21:58.475Z,18.90
2017-09-24T01:24:26.040Z,18.90
2017-09-24T01:26:53.569Z,19.00
2017-09-24T01:29:21.771Z,18.90
2017-09-24T01:31:49.311Z,18.90
2017-09-24T01:34:16.883Z,18.90
2017-09-24T01:36:44.410Z,19.00
2017-09-24T01:39:11.957Z,18.90
2017-09-24T01:41:39.449Z,18.90
2017-09-24T01:44:07.734Z,18.90
2017-09-24T01:46:35.320Z,18.80
2017-09-24T01:49:02.855Z,18.80
2017-09-24T01:51:31.151Z,18.80
2017-09-24T01:53:58.722Z,18.80
2017-09-24T01:56:26.262Z,18.90
2017-09-24T01:58:53.817Z,18.90
2017-09-24T02:01:21.718Z,19.00
2017-09-24T02:03:49.278Z,18.90
2017-09-24T02:06:16.806Z,18.90
2017-09-24T02:08:45.111Z,19.00
2017-09-24T02:11:12.685Z,19.00
2017-09-24T02:13:40.213Z,18.90
2017-09-24T02:16:07.798Z,18.80
2017-09-24T02:18:35.308Z,18.70
2017-09-24T02:21:03.641Z,18.70
2017-09-24T02:23:31.151Z,18.60
2017-09-24T02:25:59.446Z,18.50
2017-09-24T02:28:26.949Z,18.50
2017-09-24T02:30:54.507Z,18.60
2017-09-24T02:33:22.020Z,18.50
2017-09-24T02:35:50.319Z,18.60
2017-09-24T02:38:17.832Z,18.60
2017-09-24T02:40:46.156Z,18.70
2017-09-24T02:43:13.757Z,18.60
2017-09-24T02:45:41.306Z,18.60
2017-09-24T02:48:08.810Z,18.50
2017-09-24T02:50:37.146Z,18.50
2017-09-24T02:53:04.647Z,18.40
2017-09-24T02:55:32.962Z,18.50
2017-09-24T02:58:00.523Z,18.50
2017-09-24T03:00:28.070Z,18.50
2017-09-24T03:02:55.629Z,18.60
2017-09-24T03:05:23.161Z,18.60
2017-09-24T03:07:51.454Z,18.90
2017-09-24T03:10:19.050Z,18.90
2017-09-24T03:12:46.575Z,18.70
2017-09-24T03:15:14.248Z,18.80
2017-09-24T03:17:41.803Z,18.90
2017-09-24T03:20:09.364Z,18.60
2017-09-24T03:22:36.915Z,18.50
2017-09-24T03:25:04.433Z,18.70
2017-09-24T03:27:32.003Z,18.70
2017-09-24T03:29:59.576Z,18.80
2017-09-24T03:32:27.897Z,18.90
2017-09-24T03:34:55.408Z,18.90
2017-09-24T03:37:23.740Z,18.90
2017-09-24T03:39:51.294Z,18.90
2017-09-24T03:42:18.830Z,19.00
2017-09-24T03:44:46.375Z,19.00
2017-09-24T03:47:14.650Z,18.70
2017-09-24T03:49:42.926Z,18.80
2017-09-24T03:52:10.485Z,18.80
2017-09-24T03:54:38.757Z,18.80
2017-09-24T03:57:07.106Z,19.00
2017-09-24T03:59:34.638Z,19.00
2017-09-24T04:02:02.163Z,18.90
2017-09-24T04:04:29.720Z,18.90
2017-09-24T04:06:58.056Z,19.00
2017-09-24T04:09:25.611Z,18.90
2017-09-24T04:11:53.181Z,19.00
2017-09-24T04:14:20.743Z,18.90
2017-09-24T04:16:48.288Z,18.80
2017-09-24T04:19:15.805Z,18.90
2017-09-24T04:21:43.356Z,19.00
2017-09-24T04:24:10.910Z,19.00
2017-09-24T04:26:39.224Z,19.00
2017-09-24T04:29:06.777Z,19.00
2017-09-24T04:31:34.311Z,18.70
2017-09-24T04:34:02.590Z,18.70
2017-09-24T04:36:30.933Z,18.90
2017-09-24T04:38:58.455Z,18.90
2017-09-24T04:41:25.991Z,19.20
2017-09-24T04:43:53.558Z,19.00
2017-09-24T04:46:22.060Z,19.00
2017-09-24T04:48:49.570Z,19.00
2017-09-24T04:51:17.126Z,19.20
2017-09-24T04:53:44.642Z,19.30
2017-09-24T04:56:12.203Z,19.30
2017-09-24T04:58:39.747Z,19.20
2017-09-24T05:01:07.335Z,19.20
2017-09-24T05:03:34.839Z,19.30
2017-09-24T05:06:03.166Z,19.50
2017-09-24T05:08:30.674Z,19.50
2017-09-24T05:10:58.987Z,19.50
2017-09-24T05:13:26.566Z,19.50
2017-09-24T05:15:54.106Z,19.60
2017-09-24T05:18:21.934Z,19.60
2017-09-24T05:20:49.473Z,19.30
2017-09-24T05:23:17.015Z,19.30
2017-09-24T05:25:44.557Z,19.40
2017-09-24T05:28:12.091Z,19.40
2017-09-24T05:30:40.371Z,19.30
2017-09-24T05:33:08.670Z,19.40
2017-09-24T05:35:36.233Z,19.40
2017-09-24T05:38:03.754Z,19.50
2017-09-24T05:40:32.045Z,19.70
2017-09-24T05:43:00.351Z,19.60
2017-09-24T05:45:27.896Z,19.60
2017-09-24T05:47:55.450Z,19.70
2017-09-24T05:50:22.995Z,19.50
2017-09-24T05:52:51.286Z,19.40
2017-09-24T05:55:18.805Z,19.40
2017-09-24T05:57:46.361Z,19.50
2017-09-24T06:00:13.912Z,19.50
2017-09-24T06:02:41.489Z,19.40
2017-09-24T06:05:08.990Z,19.50
2017-09-24T06:07:36.549Z,19.50
2017-09-24T06:10:04.079Z,19.60
2017-09-24T06:12:32.399Z,19.80
2017-09-24T06:14:59.951Z,19.70
2017-09-24T06:17:27.509Z,19.80
2017-09-24T06:19:55.011Z,19.90
2017-09-24T06:22:23.356Z,20.10
2017-09-24T06:24:50.914Z,20.10
2017-09-24T06:27:18.440Z,20.10
2017-09-24T06:29:46.716Z,20.20
2017-09-24T06:32:15.035Z,20.40
2017-09-24T06:34:42.559Z,20.40
2017-09-24T06:37:10.869Z,20.60
2017-09-24T06:39:38.433Z,20.60
2017-09-24T06:42:05.956Z,20.70
2017-09-24T06:44:33.490Z,20.70
2017-09-24T06:47:01.080Z,20.70
2017-09-24T06:49:28.580Z,20.60
2017-09-24T06:51:56.139Z,20.30
2017-09-24T06:54:23.707Z,20.40
2017-09-24T06:56:51.235Z,20.50
2017-09-24T06:59:18.782Z,20.40
2017-09-24T07:01:46.293Z,20.40
2017-09-24T07:04:13.854Z,20.50
2017-09-24T07:06:41.365Z,20.40
2017-09-24T07:09:08.966Z,20.50
2017-09-24T07:11:36.495Z,20.70
2017-09-24T07:14:03.997Z,20.70
2017-09-24T07:16:31.514Z,20.80
2017-09-24T07:18:59.068Z,21.00
2017-09-24T07:21:26.622Z,21.00
2017-09-24T07:23:54.167Z,20.90
2017-09-24T07:26:22.212Z,21.00
2017-09-24T07:28:49.770Z,21.10
2017-09-24T07:31:17.288Z,21.50
2017-09-24T07:33:44.850Z,21.80
2017-09-24T07:36:12.353Z,22.00
2017-09-24T07:38:39.882Z,22.00
2017-09-24T07:41:07.390Z,22.30
2017-09-24T07:43:35.697Z,22.00
2017-09-24T07:46:03.221Z,22.00
2017-09-24T07:48:30.773Z,22.30
2017-09-24T07:50:58.301Z,22.50
2017-09-24T07:53:25.834Z,22.60
2017-09-24T07:55:53.354Z,22.40
2017-09-24T07:58:20.885Z,22.60
2017-09-24T08:00:48.400Z,22.80
2017-09-24T08:03:16.710Z,23.00
2017-09-24T08:05:44.257Z,23.00
2017-09-24T08:08:11.814Z,23.20
2017-09-24T08:10:39.342Z,23.40
2017-09-24T08:13:06.875Z,23.40
2017-09-24T08:15:34.391Z,23.50
2017-09-24T08:18:01.931Z,23.60
2017-09-24T08:20:30.229Z,23.50
2017-09-24T08:22:57.733Z,23.50
2017-09-24T08:25:25.285Z,23.60
2017-09-24T08:27:52.814Z,23.80
2017-09-24T08:30:20.352Z,24.10
2017-09-24T08:32:47.898Z,23.20
2017-09-24T08:35:16.206Z,23.50
2017-09-24T08:37:43.749Z,23.50
2017-09-24T08:40:11.306Z,23.40
2017-09-24T08:42:38.829Z,23.20
2017-09-24T08:45:06.428Z,23.50
2017-09-24T08:47:33.955Z,23.70
2017-09-24T08:50:01.487Z,23.90
2017-09-24T08:52:29.010Z,24.40
2017-09-24T08:54:56.541Z,24.60
2017-09-24T08:57:24.847Z,25.60
2017-09-24T08:59:52.421Z,25.60
2017-09-24T09:02:19.951Z,25.50
2017-09-24T09:04:48.265Z,26.10
2017-09-24T09:07:15.793Z,26.00
2017-09-24T09:09:44.099Z,26.60
2017-09-24T09:12:11.649Z,26.60
2017-09-24T09:14:39.214Z,27.10
2017-09-24T09:17:06.782Z,27.50
2017-09-24T09:19:34.351Z,27.80
2017-09-24T09:22:01.864Z,28.70
2017-09-24T09:24:30.251Z,30.80
2017-09-24T09:26:58.542Z,31.90
2017-09-24T09:29:26.092Z,31.80
2017-09-24T09:31:53.614Z,33.00
2017-09-24T09:34:31.982Z,33.40
2017-09-24T09:36:59.494Z,33.20
2017-09-24T09:39:27.025Z,33.90
2017-09-24T09:41:54.562Z,34.20
2017-09-24T09:44:34.266Z,33.70
2017-09-24T09:47:14.465Z,34.40
2017-09-24T09:49:42.017Z,34.30
2017-09-24T09:52:09.547Z,35.20
2017-09-24T09:54:37.854Z,36.60
2017-09-24T09:57:05.386Z,36.50
2017-09-24T09:59:33.695Z,36.80
2017-09-24T10:02:01.259Z,36.80
2017-09-24T10:04:28.877Z,36.70
2017-09-24T10:07:09.030Z,36.50
2017-09-24T10:09:49.041Z,36.40
2017-09-24T10:12:16.588Z,36.30
2017-09-24T10:14:44.119Z,36.10
2017-09-24T10:17:12.393Z,36.90
2017-09-24T10:19:39.924Z,36.80
2017-09-24T10:22:07.459Z,37.20
2017-09-24T10:24:34.985Z,36.90
2017-09-24T10:27:03.260Z,37.70
2017-09-24T10:29:31.583Z,37.10
2017-09-24T10:32:02.733Z,37.10
2017-09-24T10:34:30.281Z,37.60
2017-09-24T10:36:57.769Z,37.60
2017-09-24T10:39:25.292Z,37.70
2017-09-24T10:41:52.815Z,37.30
2017-09-24T10:44:20.378Z,37.20
2017-09-24T10:46:48.221Z,37.10
2017-09-24T10:49:15.894Z,37.50
2017-09-24T10:51:43.499Z,37.10
2017-09-24T10:54:11.018Z,36.80
2017-09-24T10:56:39.430Z,37.20
2017-09-24T10:59:06.958Z,37.20
2017-09-24T11:01:35.264Z,36.90
2017-09-24T11:04:02.765Z,36.90
2017-09-24T11:06:30.305Z,37.10
2017-09-24T11:08:57.850Z,37.60
2017-09-24T11:11:25.376Z,38.00
2017-09-24T11:13:53.686Z,37.80
2017-09-24T11:16:21.217Z,37.80
2017-09-24T11:18:48.721Z,37.40
2017-09-24T11:21:16.250Z,37.20
2017-09-24T11:23:43.770Z,37.60
2017-09-24T11:26:12.086Z,37.70
2017-09-24T11:28:39.618Z,37.70
2017-09-24T11:31:07.904Z,37.50
2017-09-24T11:33:35.432Z,37.50
2017-09-24T11:36:02.997Z,36.80
2017-09-24T11:38:30.494Z,36.40
2017-09-24T11:40:58.037Z,36.00
2017-09-24T11:43:26.334Z,35.20
2017-09-24T11:45:53.875Z,35.20
2017-09-24T11:48:23.081Z,34.90
2017-09-24T11:50:51.425Z,35.40
2017-09-24T11:53:18.976Z,35.40
2017-09-24T11:55:46.512Z,35.20
2017-09-24T11:58:14.086Z,35.10
2017-09-24T12:00:41.646Z,34.70
2017-09-24T12:03:09.171Z,34.20
2017-09-24T12:05:37.462Z,34.80
2017-09-24T12:08:04.992Z,34.80
2017-09-24T12:10:33.289Z,34.40
2017-09-24T12:13:00.802Z,34.40
2017-09-24T12:15:28.327Z,33.90
2017-09-24T12:17:55.851Z,33.90
2017-09-24T12:20:24.150Z,34.50
2017-09-24T12:22:51.664Z,34.50
2017-09-24T12:25:20.101Z,35.80
2017-09-24T12:27:47.628Z,35.80
2017-09-24T12:30:15.929Z,36.80
2017-09-24T12:32:43.455Z,36.70
2017-09-24T12:35:11.729Z,37.40
2017-09-24T12:37:40.056Z,37.30
2017-09-24T12:40:07.647Z,37.30
2017-09-24T12:42:35.973Z,37.50
2017-09-24T12:45:03.507Z,37.40
2017-09-24T12:47:31.813Z,38.30
2017-09-24T12:49:59.338Z,38.20
2017-09-24T12:52:27.666Z,38.60
2017-09-24T12:57:29.115Z,38.50
2017-09-24T12:59:56.654Z,38.70
2017-09-24T13:02:24.969Z,38.80
2017-09-24T13:04:52.518Z,38.70
2017-09-24T13:07:20.097Z,38.80
2017-09-24T13:09:47.611Z,38.60
2017-09-24T13:12:15.929Z,37.60
2017-09-24T13:14:43.457Z,37.60
2017-09-24T13:17:11.802Z,35.50
2017-09-24T13:19:40.110Z,35.10
2017-09-24T13:22:08.438Z,35.10
2017-09-24T13:24:35.945Z,35.10
2017-09-24T13:27:04.221Z,35.60
2017-09-24T13:29:32.489Z,35.70
2017-09-24T13:32:00.783Z,35.50
2017-09-24T13:34:29.120Z,35.20
2017-09-24T13:36:56.674Z,35.20
2017-09-24T13:39:24.178Z,35.70
2017-09-24T13:41:51.725Z,36.50
2017-09-24T13:44:19.997Z,36.00
2017-09-24T13:46:48.360Z,35.80
2017-09-24T13:49:15.871Z,35.70
2017-09-24T13:51:43.434Z,35.50
2017-09-24T13:54:10.996Z,35.70
2017-09-24T13:56:38.514Z,36.00
2017-09-24T13:59:06.060Z,36.40
2017-09-24T14:01:33.634Z,36.00
2017-09-24T14:04:01.149Z,36.50
2017-09-24T14:06:28.717Z,36.60
2017-09-24T14:08:56.261Z,36.80
2017-09-24T14:11:23.809Z,37.10
2017-09-24T14:13:51.321Z,37.00
2017-09-24T14:16:18.937Z,37.40
2017-09-24T14:18:46.449Z,37.90
2017-09-24T14:21:14.057Z,37.70
2017-09-24T14:23:41.572Z,37.50
2017-09-24T14:26:09.897Z,36.20
2017-09-24T14:28:37.460Z,36.10
2017-09-24T14:31:05.002Z,35.00
2017-09-24T14:33:32.551Z,34.00
2017-09-24T14:36:00.065Z,32.90
2017-09-24T14:38:27.610Z,32.10
2017-09-24T14:40:55.119Z,31.70
2017-09-24T14:43:23.534Z,31.40
2017-09-24T14:45:51.057Z,31.40
2017-09-24T14:48:19.373Z,31.30
2017-09-24T14:50:46.897Z,31.30
2017-09-24T14:53:15.216Z,31.30
2017-09-24T14:55:42.732Z,31.30
2017-09-24T14:58:11.025Z,31.50
2017-09-24T15:00:38.561Z,31.40
2017-09-24T15:03:06.887Z,30.90
2017-09-24T15:05:34.426Z,30.80
2017-09-24T15:08:01.965Z,30.60
2017-09-24T15:10:30.269Z,29.70
2017-09-24T15:12:58.656Z,29.70
2017-09-24T15:15:26.158Z,29.30
2017-09-24T15:17:54.472Z,28.70
2017-09-24T15:20:23.502Z,28.60
2017-09-24T15:22:51.074Z,28.60
2017-09-24T15:25:18.641Z,28.50
2017-09-24T15:27:46.206Z,28.60
2017-09-24T15:30:13.828Z,28.80
2017-09-24T15:32:41.354Z,29.00
2017-09-24T15:35:09.659Z,29.70
2017-09-24T15:37:37.181Z,29.70
2017-09-24T15:40:04.742Z,30.20
2017-09-24T15:42:32.281Z,30.30
2017-09-24T15:44:59.842Z,30.30
2017-09-24T15:47:27.385Z,30.60
2017-09-24T15:49:54.962Z,30.60
2017-09-24T15:52:22.836Z,30.60
2017-09-24T15:54:50.362Z,30.50
2017-09-24T15:57:17.898Z,30.50
2017-09-24T15:59:45.410Z,30.50
2017-09-24T16:02:12.948Z,30.40
2017-09-24T16:04:40.517Z,30.20
2017-09-24T16:07:08.069Z,29.90
2017-09-24T16:09:35.592Z,29.60
2017-09-24T16:12:03.130Z,29.30
2017-09-24T16:14:31.490Z,28.90
2017-09-24T16:16:59.084Z,28.90
2017-09-24T16:19:27.351Z,28.50
2017-09-24T16:21:55.647Z,28.20
2017-09-24T16:24:23.228Z,28.20
2017-09-24T16:26:50.753Z,28.00
2017-09-24T16:29:19.085Z,27.80
2017-09-24T16:31:46.649Z,27.80
2017-09-24T16:34:14.211Z,27.70
2017-09-24T16:36:41.709Z,27.60
2017-09-24T16:39:09.989Z,27.40
2017-09-24T16:41:38.260Z,27.30
2017-09-24T16:44:06.561Z,27.20
2017-09-24T16:46:34.065Z,27.20
2017-09-24T16:49:01.610Z,27.20
2017-09-24T16:51:29.120Z,26.90
2017-09-24T16:53:57.409Z,26.70
2017-09-24T16:56:24.925Z,26.70
2017-09-24T16:58:52.502Z,26.60
2017-09-24T17:01:20.052Z,26.50
2017-09-24T17:03:47.668Z,26.30
2017-09-24T17:06:15.169Z,26.10
2017-09-24T17:08:42.705Z,26.00
2017-09-24T17:11:10.209Z,25.80
2017-09-24T17:13:38.523Z,25.90
2017-09-24T17:16:06.093Z,25.90
2017-09-24T17:18:33.630Z,25.90
2017-09-24T17:21:01.188Z,25.70
2017-09-24T17:23:28.737Z,25.60
2017-09-24T17:25:57.138Z,25.40
2017-09-24T17:28:24.678Z,25.40
2017-09-24T17:30:52.972Z,25.30
2017-09-24T17:33:20.523Z,25.30
2017-09-24T17:35:48.051Z,25.20
2017-09-24T17:38:15.582Z,25.10
2017-09-24T17:40:43.171Z,25.00
2017-09-24T17:43:10.699Z,24.90
2017-09-24T17:45:38.233Z,24.60
2017-09-24T17:48:05.770Z,24.70
2017-09-24T17:50:34.053Z,24.50
2017-09-24T17:53:01.600Z,24.50
2017-09-24T17:55:29.878Z,24.60
2017-09-24T17:57:58.194Z,24.50
2017-09-24T18:00:25.756Z,24.50
2017-09-24T18:02:53.296Z,24.50
2017-09-24T18:05:20.847Z,24.50
2017-09-24T18:07:48.403Z,24.50
2017-09-24T18:10:16.734Z,24.30
2017-09-24T18:12:44.253Z,24.30
2017-09-24T18:15:11.803Z,24.30
2017-09-24T18:17:39.326Z,24.20
2017-09-24T18:20:06.862Z,24.20
2017-09-24T18:22:34.394Z,24.10
2017-09-24T18:25:01.940Z,24.00
2017-09-24T18:27:30.216Z,23.90
2017-09-24T18:29:58.505Z,23.80
2017-09-24T18:32:26.074Z,23.80
2017-09-24T18:34:53.635Z,23.80
2017-09-24T18:37:21.150Z,23.60
2017-09-24T18:39:49.525Z,23.40
2017-09-24T18:42:17.051Z,23.40
2017-09-24T18:44:44.590Z,23.30
2017-09-24T18:47:12.121Z,23.30
2017-09-24T18:49:40.439Z,23.30
2017-09-24T18:52:07.992Z,23.20
2017-09-24T18:54:35.574Z,23.10
2017-09-24T18:57:03.848Z,23.00
2017-09-24T18:59:31.409Z,23.00
2017-09-24T19:01:59.062Z,23.00
2017-09-24T19:04:26.737Z,22.90
2017-09-24T19:06:54.246Z,22.90
2017-09-24T19:09:23.496Z,22.80
2017-09-24T19:11:51.010Z,22.80
2017-09-24T19:14:19.342Z,22.70
2017-09-24T19:16:46.890Z,22.60
2017-09-24T19:19:15.237Z,22.80
2017-09-24T19:21:42.764Z,22.70
2017-09-24T19:24:10.319Z,22.70
2017-09-24T19:26:37.828Z,22.70
2017-09-24T19:29:05.398Z,22.70
2017-09-24T19:31:32.941Z,22.70
2017-09-24T19:34:00.503Z,22.60
2017-09-24T19:36:28.020Z,22.60
2017-09-24T19:38:55.592Z,22.60
2017-09-24T19:41:23.889Z,22.40
2017-09-24T19:43:51.462Z,22.40
2017-09-24T19:46:19.003Z,22.30
2017-09-24T19:48:47.456Z,22.20
2017-09-24T19:51:15.761Z,22.20
2017-09-24T19:53:44.091Z,22.10
2017-09-24T19:56:11.622Z,22.10
2017-09-24T19:58:39.165Z,22.10
2017-09-24T20:01:06.719Z,22.20
2017-09-24T20:03:34.226Z,22.30
2017-09-24T20:06:01.780Z,22.20
2017-09-24T20:08:29.298Z,22.20
2017-09-24T20:10:56.835Z,22.20
2017-09-24T20:13:24.407Z,22.20
2017-09-24T20:15:52.761Z,22.00
2017-09-24T20:18:20.299Z,21.90
2017-09-24T20:20:47.851Z,21.90
2017-09-24T20:23:15.400Z,21.80
2017-09-24T20:25:42.961Z,21.80
2017-09-24T20:28:10.554Z,21.80
2017-09-24T20:30:38.085Z,21.90
2017-09-24T20:33:05.621Z,21.70
2017-09-24T20:35:33.246Z,21.70
2017-09-24T20:38:00.767Z,21.70
2017-09-24T20:40:28.318Z,21.80
2017-09-24T20:42:56.479Z,21.80
2017-09-24T20:45:24.011Z,21.70
2017-09-24T20:47:52.326Z,21.70
2017-09-24T20:50:19.854Z,21.60
2017-09-24T20:52:48.177Z,21.60
2017-09-24T20:55:15.720Z,21.60
2017-09-24T20:57:43.250Z,21.50
2017-09-24T21:00:11.578Z,21.30
2017-09-24T21:02:39.097Z,21.30
2017-09-24T21:05:07.406Z,21.30
2017-09-24T21:07:34.955Z,21.30
2017-09-24T21:10:02.494Z,21.20
2017-09-24T21:12:30.799Z,21.30
2017-09-24T21:14:58.333Z,21.30
2017-09-24T21:17:27.575Z,21.30
2017-09-24T21:19:55.121Z,21.30
2017-09-24T21:22:23.988Z,21.20
2017-09-24T21:24:51.520Z,21.20
2017-09-24T21:27:19.789Z,21.10
2017-09-24T21:29:47.370Z,21.10
2017-09-24T21:32:15.681Z,21.20
2017-09-24T21:34:43.251Z,21.20
2017-09-24T21:37:10.828Z,21.10
2017-09-24T21:39:38.359Z,21.20
2017-09-24T21:42:05.887Z,21.30
2017-09-24T21:44:34.295Z,21.30
2017-09-24T21:47:01.823Z,21.30
2017-09-24T21:49:30.150Z,21.20
2017-09-24T21:51:57.714Z,21.30
2017-09-24T21:54:25.350Z,21.20
2017-09-24T21:56:52.889Z,21.20
2017-09-24T21:59:20.447Z,21.20
2017-09-24T22:01:48.783Z,21.30
2017-09-24T22:04:16.325Z,21.30
2017-09-24T22:06:43.894Z,21.30
2017-09-24T22:09:11.431Z,21.10
2017-09-24T22:11:39.741Z,21.20
2017-09-24T22:14:07.262Z,21.10
2017-09-24T22:16:34.774Z,21.20
2017-09-24T22:19:02.306Z,21.20
2017-09-24T22:21:29.863Z,21.10
2017-09-24T22:23:57.395Z,21.10
2017-09-24T22:26:24.926Z,21.20
2017-09-24T22:28:52.452Z,21.20
2017-09-24T22:31:19.978Z,21.10
2017-09-24T22:33:47.510Z,21.10
2017-09-24T22:36:15.823Z,21.20
2017-09-24T22:38:43.355Z,21.10
2017-09-24T22:41:11.663Z,21.20
2017-09-24T22:43:39.199Z,21.10
2017-09-24T22:46:07.485Z,21.20
2017-09-24T22:48:35.780Z,21.10
2017-09-24T22:51:03.309Z,21.10
2017-09-24T22:53:31.590Z,21.00
2017-09-24T22:55:59.958Z,21.10
2017-09-24T22:58:27.507Z,21.10
2017-09-24T23:00:55.872Z,21.20
2017-09-24T23:03:23.405Z,21.10
2017-09-24T23:05:50.975Z,21.20
2017-09-24T23:08:18.517Z,21.20
2017-09-24T23:10:46.070Z,21.30
2017-09-24T23:13:13.587Z,21.40
2017-09-24T23:15:41.146Z,21.60
2017-09-24T23:18:09.426Z,21.30
2017-09-24T23:20:37.807Z,21.30
2017-09-24T23:23:06.126Z,21.20
2017-09-24T23:25:33.688Z,21.20
2017-09-24T23:28:01.214Z,20.90
2017-09-24T23:30:29.500Z,20.90
2017-09-24T23:32:57.778Z,20.70
2017-09-24T23:35:26.079Z,20.80
2017-09-24T23:37:53.603Z,20.70
2017-09-24T23:40:21.887Z,20.80
2017-09-24T23:42:50.202Z,21.00
2017-09-24T23:45:17.730Z,21.00
2017-09-24T23:47:46.035Z,21.30
2017-09-24T23:50:13.562Z,21.30
2017-09-24T23:52:41.881Z,21.60
2017-09-24T23:55:09.405Z,21.60
2017-09-24T23:57:36.978Z,21.80
